AirNav   Airventure
 
 399 users online  

LS94 Alon USA - Krotz Springs Heliport
Krotz Springs, Louisiana, USA

GOING TO KROTZ SPRINGS?


FAA INFORMATION EFFECTIVE 20 JULY 2017

Location

FAA Identifier: LS94
Lat/Long: 30-31-59.0000N / 091-45-00.4100W
30-31.983333N / 091-45.006833W
30.5330556 / -91.7501139
(estimated)
Elevation: 36 ft. / 11 m (estimated)
Variation: 02E (2000)
Time zone: UTC -5 (UTC -6 during Standard Time)
Zip code: 70582

Heliport Operations

Heliport use: Private use. Permission required prior to landing
Activation date: 11/2000
Control tower: no
ARTCC: HOUSTON CENTER
FSS: DE RIDDER FLIGHT SERVICE STATION
Attendance: UNATNDD
Wind indicator: yes
Segmented circle: yes
Lights: SS-SR

Heliport Communications

WX AWOS-3PT at HZR (18 nm NE): 121.250 (225-638-3107)
WX AWOS-3PT at OPL (18 nm W): 118.775 (337-948-8560)

Nearby radio navigation aids

VOR radial/distance  VOR name  Freq  Var
LSUr271/23.7FIGHTING TIGER VORTAC116.5006E
LFTr029/23.9LAFAYETTE VORTAC109.8003E

 
NDB name  Hdg/Dist  Freq  Var  ID
NEW ROADS242/14.735604EFWX ..-. .-- -..-
ABBEVILLE032/34.323002EBNZ -... -. --..
DURALDE091/36.126302EECY . -.-. -.--
MARKSVILLE152/37.634702EMKV -- -.- ...-

Heliport Services

Runway Information

Helipad H1

Dimensions: 40 x 40 ft. / 12 x 12 m
Surface: concrete
Runway edge lights: PERI
Traffic pattern: leftleft

Heliport Ownership and Management from official FAA records

Ownership: Privately-owned
Owner: ALON USA
BOX 453 HWY 105 S.
KROTZ SPRINGS, LA 70750
Phone 337-566-0219
Manager: KENDALL LAKEY
BOX 453 HWY 105 S.
KROTZ SPRINGS, LA 70750
Phone 337-566-0219

Instrument Procedures

There are no published instrument procedures at LS94.

Some nearby airports with instrument procedures:

KHZR - False River Regional Airport (18 nm NE)
KOPL - St Landry Parish Airport-Ahart Field (18 nm W)
KLFT - Lafayette Regional Airport/Paul Fournet Field (23 nm SW)
KARA - Acadiana Regional Airport (31 nm S)
KBTR - Baton Rouge Metropolitan Airport, Ryan Field (31 nm E)
 
Loc | Ops | Rwys | IFR | FBO | Links
Com | Nav | Svcs | Stats | Notes


 
Area around LS94 (Alon USA - Krotz Springs Heliport)
 
Road maps at: MapQuest Bing Google
 
Aerial photo
No photo
 
Sectional chart

 
Airport distance calculator
Flying to Alon USA - Krotz Springs Heliport? Find the distance to fly.

From to LS94

Sunrise and sunset
Times for 25-Jul-2017
 Local
(UTC-5)
 Zulu
(UTC)
Morning civil twilight05:5510:55
Sunrise06:2211:22
Sunset20:0501:05
Evening civil twilight20:3201:32

Current date and time
Zulu (UTC)  25-Jul-2017 06:17:22
Local (UTC-5)  25-Jul-2017 01:17:22
 
METAR
KHZR 
18nm NE 
250555Z AUTO 00000KT 10SM OVC120 26/25 A3006 RMK AO2 LTG DSNT N AND NW P0001 60002 T02600245 10285 20255 402900236
KOPL 
18nm W 
250555Z AUTO 00000KT 10SM CLR 26/25 A3005 RMK AO2 LTG DSNT N T02560250 10281 20256 402920230
KLFT 
24nm SW 
250553Z 21005KT 10SM CLR 27/25 A3006 RMK AO2 SLP177 T02720250 10311 20272 403280250 51009
KARA 
31nm S 
250553Z AUTO 21003KT 10SM CLR 26/24 A3006 RMK AO2 SLP179 T02610239 10300 20261 403280239 50008
KBTR 
31nm E 
250553Z AUTO 18005KT 10SM SCT030 BKN110 27/24 A3006 RMK AO2 LTG DSNT NE RAB02E15 SLP177 P0000 60000 T02670239 10289 20261 403170233 50007
TAF
KLFT 
24nm SW 
250521Z 2506/2606 22005KT P6SM FEW035 BKN120 FM251500 22004KT P6SM FEW045 BKN250
NOTAMs
Click for the latest NOTAMs
NOTAMs are issued by the DoD/FAA and will open in a separate window not controlled by AirNav.

 

 
 

Would you like to see your business listed on this page?

 If your business provides an interesting product or service to pilots, flight crews, aircraft, or users of the Alon USA - Krotz Springs Heliport, you should consider listing it here.  To start the listing process, click on the button below
 
Add a business
 

Other Pages about Alon USA - Krotz Springs Heliport

Update a link
 
Copyright © AirNav, LLC. All rights reserved. Privacy Policy  Contact